Time;durP1;ratioP1;P1;durP2;ratioP2;P2;SDS_P1;SDS_P2;PMS_P1;PMS_P2;Temp;Humidity;BMP_temperature;BMP_pressure;BME280_temperature;BME280_humidity;BME280_pressure;Samples;Min_cycle;Max_cycle;Signal;HPM_P1;HPM_P2
2022/05/06 00:01:01;;;;;;;;;;;8.50;99.90;;;;;;5064346;28;20003;-76
2022/05/06 00:03:26;;;;;;;;;;;8.50;99.90;;;;;;5064603;28;19921;-76
2022/05/06 00:05:52;;;;;;;;;;;8.40;99.90;;;;;;5057367;28;19927;-78
2022/05/06 00:08:18;;;;;;;;;;;8.40;99.90;;;;;;5051452;28;19927;-78
2022/05/06 00:10:45;;;;;;;;;;;8.40;99.90;;;;;;5053156;28;20390;-76
2022/05/06 00:13:10;;;;;;;;;;;8.40;99.90;;;;;;5072279;28;19931;-77
2022/05/06 00:15:36;;;;;;;;;;;8.40;99.90;;;;;;5077379;28;20022;-76
2022/05/06 00:18:02;;;;;;;;;;;8.30;99.90;;;;;;5071913;28;19994;-76
2022/05/06 00:20:29;;;;;;;;;;;8.30;99.90;;;;;;5070739;28;20003;-76
2022/05/06 00:22:57;;;;;;;;;;;8.30;99.90;;;;;;5073799;28;19951;-77
2022/05/06 00:25:23;;;;;;;;;;;8.30;99.90;;;;;;5074594;28;19988;-77
2022/05/06 00:27:50;;;;;;;;;;;8.20;99.90;;;;;;5095485;28;20010;-76
2022/05/06 00:30:16;;;;;;;;;;;8.20;99.90;;;;;;5055568;28;19939;-76
2022/05/06 00:32:42;;;;;;;;;;;8.20;99.90;;;;;;5059756;28;20353;-76
2022/05/06 00:35:08;;;;;;;;;;;8.20;99.90;;;;;;5058257;28;19943;-76
2022/05/06 00:37:34;;;;;;;;;;;8.20;99.90;;;;;;5058973;28;19921;-76
2022/05/06 00:40:00;;;;;;;;;;;8.10;99.90;;;;;;5059468;28;19978;-76
2022/05/06 00:42:26;;;;;;;;;;;8.10;99.90;;;;;;5039051;28;20310;-76
2022/05/06 00:44:53;;;;;;;;;;;8.20;99.90;;;;;;5048495;28;19925;-78
2022/05/06 00:47:20;;;;;;;;;;;8.10;99.90;;;;;;5050789;28;19924;-78
2022/05/06 00:49:46;;;;;;;;;;;8.10;99.90;;;;;;5057462;28;19920;-78
2022/05/06 00:52:12;;;;;;;;;;;8.00;99.90;;;;;;5043129;28;19924;-77
2022/05/06 00:54:38;;;;;;;;;;;8.00;99.90;;;;;;5050719;28;20012;-78
2022/05/06 00:57:04;;;;;;;;;;;8.00;99.90;;;;;;5057494;28;19935;-77
2022/05/06 00:59:29;;;;;;;;;;;7.90;99.90;;;;;;5070172;28;19928;-78
2022/05/06 01:01:58;;;;;;;;;;;7.90;99.90;;;;;;5043885;28;20322;-76
2022/05/06 01:04:23;;;;;;;;;;;7.90;99.90;;;;;;5069734;28;19925;-76
2022/05/06 01:06:49;;;;;;;;;;;7.80;99.90;;;;;;5051028;28;19966;-76
2022/05/06 01:09:16;;;;;;;;;;;7.80;99.90;;;;;;5056463;28;19921;-76
2022/05/06 01:11:42;;;;;;;;;;;7.80;99.90;;;;;;5059241;28;20378;-78
2022/05/06 01:14:08;;;;;;;;;;;7.90;99.90;;;;;;5057900;28;19921;-78
2022/05/06 01:16:36;;;;;;;;;;;7.80;99.90;;;;;;5048033;28;19999;-76
2022/05/06 01:19:05;;;;;;;;;;;7.80;99.90;;;;;;5054969;28;19967;-76
2022/05/06 01:21:34;;;;;;;;;;;7.70;99.90;;;;;;5050915;28;19932;-77
2022/05/06 01:24:01;;;;;;;;;;;7.70;99.90;;;;;;5069394;28;19946;-77
2022/05/06 01:26:42;;;;;;;;;;;7.60;99.90;;;;;;5028247;28;19931;-76
2022/05/06 01:29:09;;;;;;;;;;;7.60;99.90;;;;;;5041381;28;20026;-77
2022/05/06 01:31:37;;;;;;;;;;;7.60;99.90;;;;;;5053471;28;19947;-76
2022/05/06 01:34:03;;;;;;;;;;;7.60;99.90;;;;;;5072096;28;19920;-78
2022/05/06 01:36:29;;;;;;;;;;;7.60;99.90;;;;;;5061506;28;20015;-79
2022/05/06 01:38:57;;;;;;;;;;;7.60;99.90;;;;;;5038911;28;19979;-79
2022/05/06 01:41:27;;;;;;;;;;;7.60;99.90;;;;;;5053900;28;19920;-76
2022/05/06 01:44:07;;;;;;;;;;;7.50;99.90;;;;;;5048592;28;20386;-76
2022/05/06 01:46:35;;;;;;;;;;;7.50;99.90;;;;;;5073385;28;20294;-76
2022/05/06 01:49:03;;;;;;;;;;;7.50;99.90;;;;;;5048667;28;19924;-76
2022/05/06 01:51:30;;;;;;;;;;;7.50;99.90;;;;;;5054003;28;19925;-77
2022/05/06 01:53:57;;;;;;;;;;;7.40;99.90;;;;;;5056045;28;20322;-79
2022/05/06 01:56:25;;;;;;;;;;;7.40;99.90;;;;;;5044250;28;19943;-76
2022/05/06 01:58:53;;;;;;;;;;;7.40;99.90;;;;;;5056458;28;19931;-78
2022/05/06 02:01:19;;;;;;;;;;;7.40;99.90;;;;;;5055253;28;19920;-76
2022/05/06 02:06:32;;;;;;;;;;;7.30;99.90;;;;;;5073695;28;19929;-78
2022/05/06 02:09:06;;;;;;;;;;;7.30;99.90;;;;;;5057305;28;19921;-77
2022/05/06 02:11:41;;;;;;;;;;;7.30;99.90;;;;;;5045237;28;19921;-78
2022/05/06 02:14:07;;;;;;;;;;;7.20;99.90;;;;;;5069287;28;19925;-76
2022/05/06 02:16:47;;;;;;;;;;;7.20;99.90;;;;;;5061514;28;19924;-76
2022/05/06 02:19:15;;;;;;;;;;;7.20;99.90;;;;;;5055693;28;19921;-78
2022/05/06 02:21:56;;;;;;;;;;;7.20;99.90;;;;;;5032860;28;19920;-76
2022/05/06 02:24:51;;;;;;;;;;;7.10;99.90;;;;;;5046546;28;19978;-76
2022/05/06 02:27:37;;;;;;;;;;;7.10;99.90;;;;;;5062668;28;19920;-76
2022/05/06 02:35:37;;;;;;;;;;;7.00;99.90;;;;;;5041760;28;19932;-76
2022/05/06 02:38:05;;;;;;;;;;;7.00;99.90;;;;;;5055460;28;19924;-76
2022/05/06 02:40:32;;;;;;;;;;;7.00;99.90;;;;;;5052006;28;20276;-79
2022/05/06 02:43:00;;;;;;;;;;;6.90;99.90;;;;;;5046575;28;19921;-79
2022/05/06 02:45:27;;;;;;;;;;;6.90;99.90;;;;;;5055215;28;20378;-76
2022/05/06 02:47:54;;;;;;;;;;;6.80;99.90;;;;;;5030347;28;19927;-76
2022/05/06 02:50:19;;;;;;;;;;;6.80;99.90;;;;;;5051747;28;19932;-77
2022/05/06 02:52:45;;;;;;;;;;;6.80;99.90;;;;;;5051942;28;19920;-77
2022/05/06 02:55:11;;;;;;;;;;;6.80;99.90;;;;;;5046366;28;19927;-78
2022/05/06 02:57:36;;;;;;;;;;;6.70;99.90;;;;;;5069096;28;19924;-76
2022/05/06 03:00:05;;;;;;;;;;;6.80;99.90;;;;;;5054415;28;19920;-76
2022/05/06 03:02:32;;;;;;;;;;;6.70;99.90;;;;;;5073227;28;19924;-76
2022/05/06 03:05:00;;;;;;;;;;;6.70;99.90;;;;;;5044006;28;19932;-76
2022/05/06 03:07:26;;;;;;;;;;;6.60;99.90;;;;;;5038314;28;19928;-76
2022/05/06 03:09:53;;;;;;;;;;;6.60;99.90;;;;;;5076018;28;20306;-77
2022/05/06 03:12:22;;;;;;;;;;;6.60;99.90;;;;;;5064667;28;19920;-77
2022/05/06 03:14:54;;;;;;;;;;;6.60;99.90;;;;;;5073063;28;19920;-77
2022/05/06 03:17:44;;;;;;;;;;;6.60;99.90;;;;;;5035625;28;19951;-82
2022/05/06 03:20:11;;;;;;;;;;;6.60;99.90;;;;;;5056155;28;19924;-77
2022/05/06 03:22:39;;;;;;;;;;;6.60;99.90;;;;;;5050955;28;20324;-76
2022/05/06 03:25:05;;;;;;;;;;;6.60;99.90;;;;;;5050863;28;19921;-77
2022/05/06 03:30:16;;;;;;;;;;;6.50;99.90;;;;;;5056349;28;19934;-80
2022/05/06 03:32:44;;;;;;;;;;;6.50;99.90;;;;;;5035769;28;19931;-77
2022/05/06 03:35:10;;;;;;;;;;;6.50;99.90;;;;;;5051580;28;19925;-79
2022/05/06 03:37:40;;;;;;;;;;;6.50;99.90;;;;;;5053203;28;19932;-76
2022/05/06 03:40:09;;;;;;;;;;;6.50;99.90;;;;;;5055521;28;20054;-79
2022/05/06 03:42:35;;;;;;;;;;;6.40;99.90;;;;;;5039813;28;19928;-77
2022/05/06 03:45:03;;;;;;;;;;;6.40;99.90;;;;;;5069187;28;19964;-77
2022/05/06 03:47:30;;;;;;;;;;;6.40;99.90;;;;;;5052075;28;19998;-76
2022/05/06 03:51:20;;;;;;;;;;;6.40;99.90;;;;;;5053668;28;20386;-77
2022/05/06 03:52:43;;;;;;;;;;;6.30;99.90;;;;;;5069528;28;19924;-77
2022/05/06 03:55:09;;;;;;;;;;;6.40;99.90;;;;;;5043251;28;19974;-78
2022/05/06 03:57:35;;;;;;;;;;;6.30;99.90;;;;;;5052167;28;19932;-77
2022/05/06 04:00:01;;;;;;;;;;;6.30;99.90;;;;;;5055112;28;19929;-77
2022/05/06 04:02:41;;;;;;;;;;;6.30;99.90;;;;;;5070416;28;19929;-77
2022/05/06 04:05:09;;;;;;;;;;;6.30;99.90;;;;;;5072705;28;19970;-80
2022/05/06 04:07:35;;;;;;;;;;;6.30;99.90;;;;;;5054957;28;20297;-80
2022/05/06 04:10:01;;;;;;;;;;;6.30;99.90;;;;;;5095771;22;20386;-82
2022/05/06 04:12:27;;;;;;;;;;;6.40;99.90;;;;;;5051289;28;19924;-82
2022/05/06 04:15:01;;;;;;;;;;;6.50;99.90;;;;;;5077665;28;19921;-82
2022/05/06 04:17:29;;;;;;;;;;;6.30;99.90;;;;;;5062860;28;19923;-84
2022/05/06 04:25:32;;;;;;;;;;;6.50;99.90;;;;;;5057003;28;19924;-82
2022/05/06 04:27:57;;;;;;;;;;;6.40;99.90;;;;;;5094389;28;19919;-83
2022/05/06 04:30:23;;;;;;;;;;;6.30;99.90;;;;;;5042984;28;19920;-83
2022/05/06 04:33:05;;;;;;;;;;;6.40;99.90;;;;;;5061319;28;20397;-82
2022/05/06 04:35:33;;;;;;;;;;;6.60;99.90;;;;;;5085578;28;20366;-82
2022/05/06 04:38:01;;;;;;;;;;;6.50;99.90;;;;;;5060845;28;19984;-82
2022/05/06 04:40:30;;;;;;;;;;;6.80;99.90;;;;;;5056592;28;19928;-84
2022/05/06 04:42:56;;;;;;;;;;;6.60;99.90;;;;;;5027842;28;19920;-84
2022/05/06 04:45:23;;;;;;;;;;;6.70;99.90;;;;;;5027765;28;20287;-86
2022/05/06 04:48:02;;;;;;;;;;;6.70;99.90;;;;;;5071062;28;19946;-86
2022/05/06 04:50:29;;;;;;;;;;;6.70;99.90;;;;;;5044683;28;19934;-86
2022/05/06 04:52:55;;;;;;;;;;;6.60;99.90;;;;;;5077533;28;19920;-86
2022/05/06 04:55:23;;;;;;;;;;;6.60;99.90;;;;;;5060128;28;20334;-86
2022/05/06 04:57:49;;;;;;;;;;;6.70;99.90;;;;;;5043030;28;20022;-84
2022/05/06 05:00:15;;;;;;;;;;;6.80;99.90;;;;;;5059334;28;20019;-85
2022/05/06 05:02:48;;;;;;;;;;;6.70;99.90;;;;;;5051881;28;19929;-87
2022/05/06 05:05:15;;;;;;;;;;;6.80;99.90;;;;;;5047611;28;20015;-86
2022/05/06 05:07:41;;;;;;;;;;;6.80;99.90;;;;;;5021898;28;19927;-82
2022/05/06 05:10:09;;;;;;;;;;;6.90;99.90;;;;;;5040232;28;19981;-82
2022/05/06 05:12:36;;;;;;;;;;;6.90;99.90;;;;;;5059404;28;19920;-82
2022/05/06 05:15:02;;;;;;;;;;;7.00;99.90;;;;;;5060275;28;19928;-83
2022/05/06 05:17:31;;;;;;;;;;;7.10;99.90;;;;;;5074459;28;19930;-83
2022/05/06 05:19:57;;;;;;;;;;;7.20;99.90;;;;;;5037904;28;19968;-83
2022/05/06 05:22:25;;;;;;;;;;;7.40;99.90;;;;;;5042833;28;19927;-83
2022/05/06 05:24:52;;;;;;;;;;;7.40;99.90;;;;;;5075721;28;19928;-83
2022/05/06 05:27:18;;;;;;;;;;;7.50;99.90;;;;;;5039525;28;20267;-82
2022/05/06 05:29:46;;;;;;;;;;;7.60;99.90;;;;;;5044316;28;19920;-84
2022/05/06 05:32:13;;;;;;;;;;;7.70;99.90;;;;;;5077128;28;19933;-83
2022/05/06 05:34:43;;;;;;;;;;;7.80;99.90;;;;;;5056486;28;20316;-86
2022/05/06 05:37:10;;;;;;;;;;;7.80;99.90;;;;;;5057859;28;19924;-86
2022/05/06 05:39:37;;;;;;;;;;;8.00;99.90;;;;;;5055681;28;19966;-86
2022/05/06 05:42:06;;;;;;;;;;;7.90;99.90;;;;;;5041736;28;20338;-85
2022/05/06 05:50:05;;;;;;;;;;;8.40;99.90;;;;;;5057032;28;19928;-83
2022/05/06 05:52:31;;;;;;;;;;;8.60;99.90;;;;;;5073291;28;19931;-83
2022/05/06 05:54:57;;;;;;;;;;;8.70;99.90;;;;;;5072011;28;20477;-83
2022/05/06 05:57:23;;;;;;;;;;;8.70;99.90;;;;;;5072073;28;19931;-83
2022/05/06 05:59:49;;;;;;;;;;;8.90;99.90;;;;;;5051822;28;20408;-83
2022/05/06 06:02:16;;;;;;;;;;;9.00;99.90;;;;;;5067964;28;19921;-82
2022/05/06 06:04:46;;;;;;;;;;;9.10;99.90;;;;;;5072799;28;19924;-82
2022/05/06 06:07:14;;;;;;;;;;;9.20;99.90;;;;;;5056740;28;19969;-82
2022/05/06 06:09:43;;;;;;;;;;;9.30;99.90;;;;;;5059844;28;20647;-83
2022/05/06 06:12:10;;;;;;;;;;;9.50;99.90;;;;;;5049450;28;19959;-82
2022/05/06 06:14:37;;;;;;;;;;;9.60;99.90;;;;;;5081843;28;19924;-82
2022/05/06 06:17:03;;;;;;;;;;;9.60;99.90;;;;;;5075118;28;19924;-83
2022/05/06 06:19:29;;;;;;;;;;;9.80;99.90;;;;;;5057033;28;19927;-82
2022/05/06 06:21:59;;;;;;;;;;;9.80;99.90;;;;;;5079370;28;19924;-82
2022/05/06 06:24:42;;;;;;;;;;;9.90;99.90;;;;;;5061282;28;19924;-82
2022/05/06 06:27:12;;;;;;;;;;;10.00;99.90;;;;;;5043377;28;19930;-81
2022/05/06 06:29:38;;;;;;;;;;;10.10;99.90;;;;;;5060939;28;20440;-82
2022/05/06 06:32:05;;;;;;;;;;;10.20;99.90;;;;;;5055943;28;19920;-82
2022/05/06 06:34:31;;;;;;;;;;;10.30;99.90;;;;;;5055850;28;20011;-84
2022/05/06 06:36:57;;;;;;;;;;;10.30;99.90;;;;;;5072048;28;20027;-83
2022/05/06 06:39:25;;;;;;;;;;;10.40;99.90;;;;;;5039016;28;19920;-82
2022/05/06 06:41:51;;;;;;;;;;;10.60;99.90;;;;;;5052527;28;19924;-83
2022/05/06 06:44:27;;;;;;;;;;;10.80;99.90;;;;;;5040550;28;20005;-82
2022/05/06 06:47:14;;;;;;;;;;;10.90;99.90;;;;;;5064271;28;19928;-83
2022/05/06 06:50:04;;;;;;;;;;;11.00;99.90;;;;;;5055884;28;19924;-83
2022/05/06 06:52:53;;;;;;;;;;;11.10;99.90;;;;;;5043692;28;19924;-82
2022/05/06 06:55:47;;;;;;;;;;;11.10;99.90;;;;;;5060371;28;19969;-86
2022/05/06 06:58:14;;;;;;;;;;;11.30;99.90;;;;;;5072606;28;19928;-83
2022/05/06 07:00:42;;;;;;;;;;;11.10;99.90;;;;;;5074318;28;19927;-83
2022/05/06 07:03:20;;;;;;;;;;;11.30;99.90;;;;;;5038096;28;19924;-85
2022/05/06 07:14:02;;;;;;;;;;;11.70;99.90;;;;;;5052711;28;21423;-84
2022/05/06 07:16:39;;;;;;;;;;;12.10;99.90;;;;;;5026956;28;20017;-85
2022/05/06 07:19:42;;;;;;;;;;;12.00;99.90;;;;;;5081768;28;19924;-82
2022/05/06 07:22:11;;;;;;;;;;;12.10;99.90;;;;;;5072396;28;19927;-84
2022/05/06 07:24:41;;;;;;;;;;;12.20;99.90;;;;;;5052446;28;19920;-83
2022/05/06 07:27:07;;;;;;;;;;;12.30;99.90;;;;;;5041968;28;19967;-83
2022/05/06 07:29:36;;;;;;;;;;;12.30;99.90;;;;;;5039653;28;19963;-82
2022/05/06 07:32:04;;;;;;;;;;;12.40;99.90;;;;;;5045836;28;20039;-85
2022/05/06 07:34:30;;;;;;;;;;;12.50;99.90;;;;;;5074495;28;19924;-82
2022/05/06 07:36:56;;;;;;;;;;;12.60;99.90;;;;;;5055714;28;19928;-82
2022/05/06 07:39:25;;;;;;;;;;;12.60;99.90;;;;;;5071740;28;19928;-83
2022/05/06 07:41:50;;;;;;;;;;;12.70;99.90;;;;;;5038642;28;19920;-83
2022/05/06 07:44:16;;;;;;;;;;;12.70;99.90;;;;;;5055942;28;19985;-82
2022/05/06 07:46:43;;;;;;;;;;;12.70;99.90;;;;;;5055791;28;20406;-83
2022/05/06 07:49:09;;;;;;;;;;;13.00;99.90;;;;;;5070539;28;19962;-85
2022/05/06 07:51:38;;;;;;;;;;;12.90;99.90;;;;;;5069461;28;19928;-86
2022/05/06 07:54:04;;;;;;;;;;;13.00;99.90;;;;;;5050285;28;20176;-88
2022/05/06 07:56:31;;;;;;;;;;;13.10;99.90;;;;;;5071857;28;19924;-86
2022/05/06 07:59:05;;;;;;;;;;;13.10;99.90;;;;;;5072308;28;20010;-86
2022/05/06 08:04:36;;;;;;;;;;;13.40;99.90;;;;;;5075717;28;20295;-86
2022/05/06 08:07:02;;;;;;;;;;;13.70;99.90;;;;;;5056584;28;19924;-86
2022/05/06 08:09:28;;;;;;;;;;;13.60;99.90;;;;;;5041319;28;19920;-86
2022/05/06 08:11:53;;;;;;;;;;;13.70;99.90;;;;;;5057935;28;20022;-87
2022/05/06 08:14:19;;;;;;;;;;;13.90;99.90;;;;;;5053918;28;19927;-86
2022/05/06 08:16:45;;;;;;;;;;;14.10;99.90;;;;;;5075556;28;19999;-87
2022/05/06 08:19:11;;;;;;;;;;;14.20;99.90;;;;;;5041398;28;19927;-87
2022/05/06 08:21:39;;;;;;;;;;;14.40;99.90;;;;;;5058443;28;19920;-87
2022/05/06 08:24:05;;;;;;;;;;;14.70;99.90;;;;;;5074906;28;19932;-87
2022/05/06 08:26:31;;;;;;;;;;;14.90;99.90;;;;;;5051856;28;19921;-88
2022/05/06 08:28:56;;;;;;;;;;;15.20;99.90;;;;;;5029224;28;20366;-86
2022/05/06 08:31:22;;;;;;;;;;;15.30;99.90;;;;;;5055059;28;19920;-87
2022/05/06 08:33:48;;;;;;;;;;;15.60;99.90;;;;;;5071850;28;20015;-87
2022/05/06 08:36:14;;;;;;;;;;;15.70;99.90;;;;;;5075052;28;20370;-87
2022/05/06 08:38:42;;;;;;;;;;;15.80;99.90;;;;;;5058181;28;19924;-84
2022/05/06 08:41:09;;;;;;;;;;;15.90;99.90;;;;;;5042153;28;19974;-85
2022/05/06 08:43:38;;;;;;;;;;;16.20;99.90;;;;;;5038060;28;20007;-83
2022/05/06 08:51:58;;;;;;;;;;;16.20;99.90;;;;;;5057890;28;20019;-88
2022/05/06 08:54:26;;;;;;;;;;;16.50;99.90;;;;;;5036049;28;19947;-86
2022/05/06 08:56:52;;;;;;;;;;;16.40;99.90;;;;;;5058560;28;19946;-83
2022/05/06 08:59:46;;;;;;;;;;;16.50;99.90;;;;;;5073634;28;19924;-83
2022/05/06 09:02:12;;;;;;;;;;;16.60;99.90;;;;;;5066382;28;20404;-86
2022/05/06 09:04:40;;;;;;;;;;;17.00;99.90;;;;;;5047155;28;20015;-83
2022/05/06 09:07:13;;;;;;;;;;;17.10;99.90;;;;;;5074217;28;20058;-83
2022/05/06 09:09:40;;;;;;;;;;;17.30;99.90;;;;;;5053750;28;19920;-84
2022/05/06 09:17:44;;;;;;;;;;;17.80;99.90;;;;;;5053163;28;19938;-86
2022/05/06 09:20:17;;;;;;;;;;;18.00;99.90;;;;;;5052957;28;19924;-84
2022/05/06 09:22:43;;;;;;;;;;;18.20;99.90;;;;;;5040793;28;20011;-84
2022/05/06 09:25:09;;;;;;;;;;;18.50;99.90;;;;;;5074203;28;20434;-84
2022/05/06 09:27:35;;;;;;;;;;;18.70;99.90;;;;;;5074362;28;20390;-85
2022/05/06 09:30:07;;;;;;;;;;;19.00;99.90;;;;;;5037854;28;19927;-84
2022/05/06 09:32:33;;;;;;;;;;;19.30;99.90;;;;;;5051886;28;19931;-83
2022/05/06 09:35:15;;;;;;;;;;;19.60;99.90;;;;;;5056796;28;19924;-84
2022/05/06 09:37:42;;;;;;;;;;;19.90;99.90;;;;;;5049016;28;19921;-83
2022/05/06 09:40:10;;;;;;;;;;;19.90;99.90;;;;;;5055475;28;19974;-83
2022/05/06 09:42:37;;;;;;;;;;;20.00;99.90;;;;;;5063936;28;20286;-84
2022/05/06 09:45:03;;;;;;;;;;;20.20;99.90;;;;;;5075739;28;19920;-84
2022/05/06 09:47:29;;;;;;;;;;;20.50;99.90;;;;;;5056951;28;20008;-87
2022/05/06 09:49:55;;;;;;;;;;;21.10;99.90;;;;;;5048765;28;19920;-84
2022/05/06 09:52:22;;;;;;;;;;;22.00;99.90;;;;;;5064912;28;19924;-85
2022/05/06 09:54:48;;;;;;;;;;;22.30;99.90;;;;;;5041586;28;19920;-86
2022/05/06 09:57:15;;;;;;;;;;;22.40;99.90;;;;;;5058129;28;19920;-85
2022/05/06 09:59:41;;;;;;;;;;;22.40;99.80;;;;;;5071892;28;19985;-85
2022/05/06 10:02:08;;;;;;;;;;;22.30;98.60;;;;;;5076059;28;20340;-83
2022/05/06 10:04:38;;;;;;;;;;;22.20;98.00;;;;;;5073144;28;19920;-84
2022/05/06 10:07:09;;;;;;;;;;;22.40;99.20;;;;;;5058042;28;20344;-86
2022/05/06 10:09:37;;;;;;;;;;;22.60;98.30;;;;;;5086097;28;19934;-84
2022/05/06 10:12:07;;;;;;;;;;;22.90;96.50;;;;;;5085502;28;19926;-86
2022/05/06 10:14:35;;;;;;;;;;;23.40;96.50;;;;;;5043050;28;19967;-84
2022/05/06 10:17:00;;;;;;;;;;;23.50;95.10;;;;;;5045357;28;19924;-84
2022/05/06 10:19:59;;;;;;;;;;;24.10;95.50;;;;;;5045061;28;20019;-86
2022/05/06 10:22:49;;;;;;;;;;;24.80;94.90;;;;;;5051007;22;20287;-77
2022/05/06 10:25:30;;;;;;;;;;;25.00;94.10;;;;;;5102859;28;19936;-78
2022/05/06 10:34:09;;;;;;;;;;;24.70;91.00;;;;;;5084885;28;19924;-76
2022/05/06 10:36:41;;;;;;;;;;;24.30;89.70;;;;;;5068156;28;19920;-80
2022/05/06 10:39:17;;;;;;;;;;;24.40;88.50;;;;;;5092140;28;19930;-78
2022/05/06 10:41:57;;;;;;;;;;;24.30;86.00;;;;;;5089174;28;19940;-76
2022/05/06 10:44:34;;;;;;;;;;;23.90;85.80;;;;;;5094391;28;20036;-77
2022/05/06 10:47:01;;;;;;;;;;;23.90;87.00;;;;;;5093422;28;20023;-76
2022/05/06 10:49:48;;;;;;;;;;;24.10;87.70;;;;;;5093379;28;19928;-77
2022/05/06 10:52:33;;;;;;;;;;;24.30;87.70;;;;;;5076120;28;19927;-77
2022/05/06 10:55:00;;;;;;;;;;;24.50;86.20;;;;;;5077350;28;20531;-77
2022/05/06 10:57:26;;;;;;;;;;;24.50;81.70;;;;;;5090951;28;20019;-79
2022/05/06 10:59:53;;;;;;;;;;;24.30;83.40;;;;;;5094696;28;19919;-77
2022/05/06 11:02:20;;;;;;;;;;;24.30;85.60;;;;;;5078088;28;19921;-76
2022/05/06 11:04:49;;;;;;;;;;;24.70;84.00;;;;;;5095223;28;19970;-77
2022/05/06 11:07:15;;;;;;;;;;;24.90;83.10;;;;;;5089378;28;20006;-78
2022/05/06 11:09:40;;;;;;;;;;;25.00;80.00;;;;;;5072756;28;19920;-78
2022/05/06 11:12:06;;;;;;;;;;;24.60;78.80;;;;;;5062179;28;20002;-78
2022/05/06 11:14:33;;;;;;;;;;;24.60;80.30;;;;;;5086836;28;20430;-77
2022/05/06 11:17:13;;;;;;;;;;;24.50;78.00;;;;;;5082727;28;19946;-76
2022/05/06 11:19:40;;;;;;;;;;;24.50;77.50;;;;;;5074490;28;20393;-78
2022/05/06 11:22:05;;;;;;;;;;;24.40;77.70;;;;;;5092827;28;20427;-77
2022/05/06 11:24:31;;;;;;;;;;;24.50;77.60;;;;;;5080433;28;19924;-77
2022/05/06 11:27:10;;;;;;;;;;;24.80;74.70;;;;;;5071185;28;19943;-77
2022/05/06 11:29:45;;;;;;;;;;;24.90;69.50;;;;;;5049509;28;19953;-79
2022/05/06 11:32:10;;;;;;;;;;;25.00;69.60;;;;;;5088759;28;19920;-81
2022/05/06 11:34:38;;;;;;;;;;;25.20;69.20;;;;;;5077722;28;19927;-77
2022/05/06 11:37:06;;;;;;;;;;;25.30;67.90;;;;;;5051792;28;19928;-78
2022/05/06 11:39:32;;;;;;;;;;;25.30;67.00;;;;;;5061258;28;19928;-77
2022/05/06 11:42:17;;;;;;;;;;;25.30;64.70;;;;;;5083966;28;19920;-77
2022/05/06 11:47:27;;;;;;;;;;;25.60;66.80;;;;;;5103177;28;19919;-77
2022/05/06 11:49:52;;;;;;;;;;;25.90;66.60;;;;;;5065909;28;19967;-79
2022/05/06 11:52:19;;;;;;;;;;;26.10;66.00;;;;;;5078378;28;20302;-79
2022/05/06 11:54:45;;;;;;;;;;;26.20;65.50;;;;;;5078541;28;19974;-78
2022/05/06 11:57:12;;;;;;;;;;;26.40;65.70;;;;;;5122172;27;19920;-77
2022/05/06 11:59:38;;;;;;;;;;;26.60;62.80;;;;;;5104678;28;19921;-78
2022/05/06 12:02:05;;;;;;;;;;;26.40;62.10;;;;;;5050060;28;19924;-79
2022/05/06 12:04:31;;;;;;;;;;;26.40;62.10;;;;;;5056346;28;20386;-76
2022/05/06 12:06:56;;;;;;;;;;;26.20;60.20;;;;;;5074996;28;19943;-76
2022/05/06 12:09:25;;;;;;;;;;;26.10;60.90;;;;;;5081082;28;19951;-78
2022/05/06 12:12:01;;;;;;;;;;;26.00;61.60;;;;;;5087538;28;20007;-76
2022/05/06 12:14:26;;;;;;;;;;;25.90;60.70;;;;;;5088960;28;19920;-78
2022/05/06 12:16:52;;;;;;;;;;;25.70;59.20;;;;;;5075130;28;20394;-76
2022/05/06 12:19:18;;;;;;;;;;;25.90;61.20;;;;;;5070303;28;19924;-79
2022/05/06 12:21:44;;;;;;;;;;;26.10;62.90;;;;;;5066483;28;20271;-77
2022/05/06 12:24:09;;;;;;;;;;;26.00;61.80;;;;;;5095365;28;19939;-78
2022/05/06 12:26:37;;;;;;;;;;;26.10;62.90;;;;;;5082001;28;20018;-78
2022/05/06 12:29:04;;;;;;;;;;;26.20;62.90;;;;;;5092935;28;19924;-79
2022/05/06 12:31:30;;;;;;;;;;;26.40;62.90;;;;;;5089059;28;20397;-77
2022/05/06 12:33:59;;;;;;;;;;;26.40;62.30;;;;;;5066880;28;20441;-78
2022/05/06 12:36:25;;;;;;;;;;;26.50;62.10;;;;;;5064838;28;19974;-78
2022/05/06 12:38:51;;;;;;;;;;;26.60;62.20;;;;;;5066979;28;19975;-78
2022/05/06 12:41:19;;;;;;;;;;;26.50;61.00;;;;;;5093579;28;19920;-81
2022/05/06 12:43:47;;;;;;;;;;;26.50;61.90;;;;;;5082515;28;19920;-76
2022/05/06 12:46:23;;;;;;;;;;;26.60;62.40;;;;;;5089015;28;19923;-79
2022/05/06 12:51:33;;;;;;;;;;;26.30;61.40;;;;;;5085100;28;21357;-77
2022/05/06 12:53:59;;;;;;;;;;;26.30;60.60;;;;;;5074696;28;19920;-77
2022/05/06 12:56:24;;;;;;;;;;;26.20;61.90;;;;;;5084620;28;21415;-78
2022/05/06 12:58:52;;;;;;;;;;;25.90;59.70;;;;;;5073681;28;20027;-76
2022/05/06 13:01:18;;;;;;;;;;;25.60;60.60;;;;;;5070756;28;19925;-76
2022/05/06 13:03:43;;;;;;;;;;;25.60;61.90;;;;;;5070395;28;19963;-78
2022/05/06 13:06:09;;;;;;;;;;;25.30;63.70;;;;;;5070089;28;19931;-78
2022/05/06 13:08:34;;;;;;;;;;;25.40;62.60;;;;;;5055594;28;19924;-77
2022/05/06 13:11:00;;;;;;;;;;;25.60;64.20;;;;;;5086205;28;19998;-78
2022/05/06 13:13:26;;;;;;;;;;;25.30;63.20;;;;;;5085198;28;19920;-78
2022/05/06 13:15:56;;;;;;;;;;;24.70;64.50;;;;;;5084873;28;19932;-78
2022/05/06 13:18:22;;;;;;;;;;;24.50;65.80;;;;;;5059104;28;20378;-77
2022/05/06 13:20:47;;;;;;;;;;;24.70;65.10;;;;;;5080412;28;19943;-78
2022/05/06 13:23:14;;;;;;;;;;;25.00;65.20;;;;;;5076289;28;19987;-77
2022/05/06 13:25:40;;;;;;;;;;;25.20;66.30;;;;;;5093937;28;19948;-77
2022/05/06 13:28:08;;;;;;;;;;;25.00;66.50;;;;;;5083601;28;19943;-79
2022/05/06 13:30:33;;;;;;;;;;;25.10;66.70;;;;;;5089852;28;19924;-78
2022/05/06 13:33:00;;;;;;;;;;;25.30;66.20;;;;;;5079393;28;19942;-77
2022/05/06 13:35:28;;;;;;;;;;;24.80;65.40;;;;;;5080766;28;19955;-79
2022/05/06 13:37:53;;;;;;;;;;;24.30;66.40;;;;;;5069476;28;19924;-80
2022/05/06 13:40:19;;;;;;;;;;;23.80;67.70;;;;;;5087116;28;19927;-76
2022/05/06 13:42:44;;;;;;;;;;;23.40;69.00;;;;;;5064044;28;19946;-77
2022/05/06 13:45:11;;;;;;;;;;;23.20;70.80;;;;;;5081230;28;19975;-77
2022/05/06 13:47:36;;;;;;;;;;;23.40;71.20;;;;;;5065451;28;20417;-77
2022/05/06 13:50:07;;;;;;;;;;;23.80;71.30;;;;;;5067993;28;21381;-77
2022/05/06 13:52:33;;;;;;;;;;;24.10;72.70;;;;;;5085507;28;19928;-75
2022/05/06 13:54:59;;;;;;;;;;;24.20;72.40;;;;;;5074800;28;19921;-77
2022/05/06 14:00:10;;;;;;;;;;;24.50;71.80;;;;;;5096962;28;20312;-77
2022/05/06 14:02:37;;;;;;;;;;;24.40;72.00;;;;;;5075580;28;19926;-77
2022/05/06 14:05:03;;;;;;;;;;;24.10;72.20;;;;;;5066062;28;20354;-77
2022/05/06 14:07:30;;;;;;;;;;;23.80;71.90;;;;;;5067701;28;20294;-77
2022/05/06 14:09:56;;;;;;;;;;;23.70;72.60;;;;;;5082913;28;19947;-77
2022/05/06 14:12:21;;;;;;;;;;;23.70;71.90;;;;;;5081604;28;20386;-76
2022/05/06 14:14:47;;;;;;;;;;;23.80;72.60;;;;;;5078486;28;20362;-80
2022/05/06 14:17:12;;;;;;;;;;;23.90;73.10;;;;;;5087353;28;19930;-79
2022/05/06 14:19:38;;;;;;;;;;;23.60;72.20;;;;;;5088422;28;19927;-76
2022/05/06 14:22:05;;;;;;;;;;;23.30;73.50;;;;;;5082410;28;19924;-78
2022/05/06 14:24:32;;;;;;;;;;;23.30;74.50;;;;;;5086885;28;19921;-77
2022/05/06 14:26:58;;;;;;;;;;;23.50;75.00;;;;;;5077221;28;20023;-77
2022/05/06 14:29:23;;;;;;;;;;;23.90;74.70;;;;;;5078482;28;20007;-79
2022/05/06 14:31:49;;;;;;;;;;;24.20;73.90;;;;;;5076860;28;20381;-78
2022/05/06 14:34:15;;;;;;;;;;;24.10;73.40;;;;;;5081761;28;19963;-79
2022/05/06 14:36:40;;;;;;;;;;;24.10;73.40;;;;;;5066815;28;19982;-79
2022/05/06 14:39:06;;;;;;;;;;;24.30;73.10;;;;;;5090165;28;19924;-78
2022/05/06 14:41:33;;;;;;;;;;;24.50;72.90;;;;;;5067431;28;19920;-79
2022/05/06 14:43:59;;;;;;;;;;;24.60;70.40;;;;;;5087110;28;19933;-77
2022/05/06 14:46:24;;;;;;;;;;;24.50;67.30;;;;;;5084102;28;19920;-77
2022/05/06 14:48:50;;;;;;;;;;;24.50;67.70;;;;;;5090224;28;19924;-79
2022/05/06 14:51:15;;;;;;;;;;;24.30;67.90;;;;;;5091001;28;19984;-78
2022/05/06 14:53:41;;;;;;;;;;;24.30;68.00;;;;;;5094846;28;19927;-80
2022/05/06 14:56:07;;;;;;;;;;;24.20;68.90;;;;;;5091583;28;19984;-79
2022/05/06 14:58:34;;;;;;;;;;;24.30;69.20;;;;;;5100083;28;19924;-78
2022/05/06 15:00:59;;;;;;;;;;;24.10;67.50;;;;;;5091659;28;19924;-78
2022/05/06 15:03:27;;;;;;;;;;;24.10;67.70;;;;;;5100965;28;20348;-78
2022/05/06 15:05:53;;;;;;;;;;;24.00;67.70;;;;;;5099004;28;19950;-78
2022/05/06 15:08:19;;;;;;;;;;;23.90;67.80;;;;;;5098360;28;19920;-78
2022/05/06 15:10:46;;;;;;;;;;;23.80;68.30;;;;;;5075112;28;19920;-78
2022/05/06 15:13:12;;;;;;;;;;;23.70;67.80;;;;;;5070007;28;19929;-78
2022/05/06 15:15:41;;;;;;;;;;;23.40;68.20;;;;;;5061953;28;19924;-79
2022/05/06 15:20:51;;;;;;;;;;;22.90;70.10;;;;;;5068765;28;19974;-78
2022/05/06 15:23:17;;;;;;;;;;;22.80;70.10;;;;;;5081440;28;20373;-77
2022/05/06 15:25:43;;;;;;;;;;;22.80;69.60;;;;;;5079646;28;20007;-78
2022/05/06 15:28:08;;;;;;;;;;;22.70;70.40;;;;;;5081321;28;20068;-79
2022/05/06 15:30:35;;;;;;;;;;;22.70;72.10;;;;;;5079063;28;19920;-78
2022/05/06 15:33:02;;;;;;;;;;;22.60;71.80;;;;;;5080881;28;20536;-80